sensor_id;sensor_type;location;lat;lon;timestamp;temperature;humidity
2873;DHT22;1444;49.166;7.312;2022-09-27T00:00:57;11.90;99.90
2873;DHT22;1444;49.166;7.312;2022-09-27T00:03:24;12.00;99.90
2873;DHT22;1444;49.166;7.312;2022-09-27T00:06:01;12.00;99.90
2873;DHT22;1444;49.166;7.312;2022-09-27T00:08:30;12.00;99.90
2873;DHT22;1444;49.166;7.312;2022-09-27T00:10:59;12.00;99.90
2873;DHT22;1444;49.166;7.312;2022-09-27T00:13:26;11.90;99.90
2873;DHT22;1444;49.166;7.312;2022-09-27T00:15:58;11.90;99.90
2873;DHT22;1444;49.166;7.312;2022-09-27T00:18:25;12.00;99.90
2873;DHT22;1444;49.166;7.312;2022-09-27T00:20:52;12.00;99.90
2873;DHT22;1444;49.166;7.312;2022-09-27T00:23:20;12.00;99.90
2873;DHT22;1444;49.166;7.312;2022-09-27T00:25:56;12.00;99.90
2873;DHT22;1444;49.166;7.312;2022-09-27T00:28:24;12.00;99.90
2873;DHT22;1444;49.166;7.312;2022-09-27T00:30:51;12.00;99.90
2873;DHT22;1444;49.166;7.312;2022-09-27T00:33:18;12.10;99.90
2873;DHT22;1444;49.166;7.312;2022-09-27T00:35:45;12.10;99.90
2873;DHT22;1444;49.166;7.312;2022-09-27T00:38:12;12.00;99.90
2873;DHT22;1444;49.166;7.312;2022-09-27T00:43:15;12.10;99.90
2873;DHT22;1444;49.166;7.312;2022-09-27T00:45:45;12.00;99.90
2873;DHT22;1444;49.166;7.312;2022-09-27T00:48:16;12.00;99.90
2873;DHT22;1444;49.166;7.312;2022-09-27T00:50:45;12.10;99.90
2873;DHT22;1444;49.166;7.312;2022-09-27T00:53:16;12.00;99.90
2873;DHT22;1444;49.166;7.312;2022-09-27T00:55:48;12.00;99.90
2873;DHT22;1444;49.166;7.312;2022-09-27T00:58:18;12.00;99.90
2873;DHT22;1444;49.166;7.312;2022-09-27T01:00:51;12.00;99.90
2873;DHT22;1444;49.166;7.312;2022-09-27T01:03:22;12.10;99.90
2873;DHT22;1444;49.166;7.312;2022-09-27T01:05:51;12.00;99.90
2873;DHT22;1444;49.166;7.312;2022-09-27T01:08:18;12.10;99.90
2873;DHT22;1444;49.166;7.312;2022-09-27T01:10:55;12.00;99.90
2873;DHT22;1444;49.166;7.312;2022-09-27T01:13:30;12.00;99.90
2873;DHT22;1444;49.166;7.312;2022-09-27T01:16:05;12.00;99.90
2873;DHT22;1444;49.166;7.312;2022-09-27T01:18:40;12.00;99.90
2873;DHT22;1444;49.166;7.312;2022-09-27T01:21:40;12.00;99.90
2873;DHT22;1444;49.166;7.312;2022-09-27T01:24:20;11.90;99.90
2873;DHT22;1444;49.166;7.312;2022-09-27T01:27:19;11.90;99.90
2873;DHT22;1444;49.166;7.312;2022-09-27T01:30:09;12.00;99.90
2873;DHT22;1444;49.166;7.312;2022-09-27T01:32:40;11.90;99.90
2873;DHT22;1444;49.166;7.312;2022-09-27T01:35:20;11.90;99.90
2873;DHT22;1444;49.166;7.312;2022-09-27T01:37:51;11.90;99.90
2873;DHT22;1444;49.166;7.312;2022-09-27T01:40:28;11.90;99.90
2873;DHT22;1444;49.166;7.312;2022-09-27T01:43:02;11.80;99.90
2873;DHT22;1444;49.166;7.312;2022-09-27T01:45:36;11.80;99.90
2873;DHT22;1444;49.166;7.312;2022-09-27T01:48:09;11.80;99.90
2873;DHT22;1444;49.166;7.312;2022-09-27T01:50:39;11.80;99.90
2873;DHT22;1444;49.166;7.312;2022-09-27T01:53:11;11.80;99.90
2873;DHT22;1444;49.166;7.312;2022-09-27T01:55:39;11.80;99.90
2873;DHT22;1444;49.166;7.312;2022-09-27T01:58:11;11.80;99.90
2873;DHT22;1444;49.166;7.312;2022-09-27T02:00:43;11.80;99.90
2873;DHT22;1444;49.166;7.312;2022-09-27T02:03:14;11.80;99.90
2873;DHT22;1444;49.166;7.312;2022-09-27T02:08:15;11.80;99.90
2873;DHT22;1444;49.166;7.312;2022-09-27T02:10:43;11.90;99.90
2873;DHT22;1444;49.166;7.312;2022-09-27T02:15:48;11.80;99.90
2873;DHT22;1444;49.166;7.312;2022-09-27T02:18:23;11.70;99.90
2873;DHT22;1444;49.166;7.312;2022-09-27T02:20:55;11.80;99.90
2873;DHT22;1444;49.166;7.312;2022-09-27T02:23:31;11.80;99.90
2873;DHT22;1444;49.166;7.312;2022-09-27T02:26:03;11.70;99.90
2873;DHT22;1444;49.166;7.312;2022-09-27T02:28:34;11.70;99.90
2873;DHT22;1444;49.166;7.312;2022-09-27T02:31:02;11.70;99.90
2873;DHT22;1444;49.166;7.312;2022-09-27T02:33:33;11.70;99.90
2873;DHT22;1444;49.166;7.312;2022-09-27T02:36:01;11.80;99.90
2873;DHT22;1444;49.166;7.312;2022-09-27T02:38:28;11.70;99.90
2873;DHT22;1444;49.166;7.312;2022-09-27T02:40:54;11.80;99.90
2873;DHT22;1444;49.166;7.312;2022-09-27T02:43:23;11.70;99.90
2873;DHT22;1444;49.166;7.312;2022-09-27T02:46:07;11.70;99.90
2873;DHT22;1444;49.166;7.312;2022-09-27T02:48:42;11.70;99.90
2873;DHT22;1444;49.166;7.312;2022-09-27T02:51:27;11.70;99.90
2873;DHT22;1444;49.166;7.312;2022-09-27T02:54:10;11.70;99.90
2873;DHT22;1444;49.166;7.312;2022-09-27T02:56:48;11.70;99.90
2873;DHT22;1444;49.166;7.312;2022-09-27T02:59:22;11.70;99.90
2873;DHT22;1444;49.166;7.312;2022-09-27T03:02:00;11.70;99.90
2873;DHT22;1444;49.166;7.312;2022-09-27T03:06:59;11.70;99.90
2873;DHT22;1444;49.166;7.312;2022-09-27T03:09:28;11.70;99.90
2873;DHT22;1444;49.166;7.312;2022-09-27T03:11:55;11.80;99.90
2873;DHT22;1444;49.166;7.312;2022-09-27T03:14:22;11.80;99.90
2873;DHT22;1444;49.166;7.312;2022-09-27T03:16:49;11.80;99.90
2873;DHT22;1444;49.166;7.312;2022-09-27T03:19:17;11.80;99.90
2873;DHT22;1444;49.166;7.312;2022-09-27T03:21:44;11.80;99.90
2873;DHT22;1444;49.166;7.312;2022-09-27T03:24:10;11.70;99.90
2873;DHT22;1444;49.166;7.312;2022-09-27T03:26:37;11.60;99.90
2873;DHT22;1444;49.166;7.312;2022-09-27T03:29:04;11.60;99.90
2873;DHT22;1444;49.166;7.312;2022-09-27T03:31:30;11.70;99.90
2873;DHT22;1444;49.166;7.312;2022-09-27T03:33:57;11.60;99.90
2873;DHT22;1444;49.166;7.312;2022-09-27T03:36:25;11.60;99.90
2873;DHT22;1444;49.166;7.312;2022-09-27T03:38:52;11.60;99.90
2873;DHT22;1444;49.166;7.312;2022-09-27T03:41:18;11.50;99.90
2873;DHT22;1444;49.166;7.312;2022-09-27T03:43:45;11.50;99.90
2873;DHT22;1444;49.166;7.312;2022-09-27T03:46:12;11.40;99.90
2873;DHT22;1444;49.166;7.312;2022-09-27T03:48:38;11.40;99.90
2873;DHT22;1444;49.166;7.312;2022-09-27T03:51:07;8.30;99.90
2873;DHT22;1444;49.166;7.312;2022-09-27T03:53:35;11.40;99.90
2873;DHT22;1444;49.166;7.312;2022-09-27T03:56:02;11.40;99.90
2873;DHT22;1444;49.166;7.312;2022-09-27T03:58:28;11.40;99.90
2873;DHT22;1444;49.166;7.312;2022-09-27T04:00:55;11.40;99.90
2873;DHT22;1444;49.166;7.312;2022-09-27T04:03:22;11.40;99.90
2873;DHT22;1444;49.166;7.312;2022-09-27T04:05:51;11.40;99.90
2873;DHT22;1444;49.166;7.312;2022-09-27T04:08:18;11.40;99.90
2873;DHT22;1444;49.166;7.312;2022-09-27T04:10:46;11.30;99.90
2873;DHT22;1444;49.166;7.312;2022-09-27T04:13:13;11.30;99.90
2873;DHT22;1444;49.166;7.312;2022-09-27T04:15:41;11.40;99.90
2873;DHT22;1444;49.166;7.312;2022-09-27T04:18:07;11.40;99.90
2873;DHT22;1444;49.166;7.312;2022-09-27T04:20:35;11.40;99.90
2873;DHT22;1444;49.166;7.312;2022-09-27T04:23:02;11.40;99.90
2873;DHT22;1444;49.166;7.312;2022-09-27T04:25:29;11.30;99.90
2873;DHT22;1444;49.166;7.312;2022-09-27T04:27:58;11.40;99.90
2873;DHT22;1444;49.166;7.312;2022-09-27T04:32:53;11.30;99.90
2873;DHT22;1444;49.166;7.312;2022-09-27T04:35:19;11.20;99.90
2873;DHT22;1444;49.166;7.312;2022-09-27T04:38:03;11.20;99.90
2873;DHT22;1444;49.166;7.312;2022-09-27T04:40:33;11.10;99.90
2873;DHT22;1444;49.166;7.312;2022-09-27T04:43:01;11.10;99.90
2873;DHT22;1444;49.166;7.312;2022-09-27T04:45:29;11.10;99.90
2873;DHT22;1444;49.166;7.312;2022-09-27T04:47:56;11.00;99.90
2873;DHT22;1444;49.166;7.312;2022-09-27T04:50:22;11.10;99.90
2873;DHT22;1444;49.166;7.312;2022-09-27T04:52:50;11.10;99.90
2873;DHT22;1444;49.166;7.312;2022-09-27T04:55:18;11.20;99.90
2873;DHT22;1444;49.166;7.312;2022-09-27T04:57:45;11.10;99.90
2873;DHT22;1444;49.166;7.312;2022-09-27T05:00:14;11.10;99.90
2873;DHT22;1444;49.166;7.312;2022-09-27T05:02:41;11.00;99.90
2873;DHT22;1444;49.166;7.312;2022-09-27T05:05:08;11.10;99.90
2873;DHT22;1444;49.166;7.312;2022-09-27T05:07:36;11.10;99.90
2873;DHT22;1444;49.166;7.312;2022-09-27T05:10:04;11.00;99.90
2873;DHT22;1444;49.166;7.312;2022-09-27T05:12:31;11.00;99.90
2873;DHT22;1444;49.166;7.312;2022-09-27T05:14:58;11.00;99.90
2873;DHT22;1444;49.166;7.312;2022-09-27T05:17:26;10.90;99.90
2873;DHT22;1444;49.166;7.312;2022-09-27T05:19:53;11.00;99.90
2873;DHT22;1444;49.166;7.312;2022-09-27T05:22:19;11.00;99.90
2873;DHT22;1444;49.166;7.312;2022-09-27T05:24:46;11.00;99.90
2873;DHT22;1444;49.166;7.312;2022-09-27T05:27:13;11.10;99.90
2873;DHT22;1444;49.166;7.312;2022-09-27T05:29:43;11.00;99.90
2873;DHT22;1444;49.166;7.312;2022-09-27T05:32:09;11.10;99.90
2873;DHT22;1444;49.166;7.312;2022-09-27T05:34:37;11.10;99.90
2873;DHT22;1444;49.166;7.312;2022-09-27T05:37:04;11.20;99.90
2873;DHT22;1444;49.166;7.312;2022-09-27T05:39:31;11.20;99.90
2873;DHT22;1444;49.166;7.312;2022-09-27T05:41:58;11.20;99.90
2873;DHT22;1444;49.166;7.312;2022-09-27T05:44:26;11.00;99.90
2873;DHT22;1444;49.166;7.312;2022-09-27T05:46:52;11.10;99.90
2873;DHT22;1444;49.166;7.312;2022-09-27T05:49:19;11.00;99.90
2873;DHT22;1444;49.166;7.312;2022-09-27T05:51:47;11.10;99.90
2873;DHT22;1444;49.166;7.312;2022-09-27T05:54:13;12.70;99.90
2873;DHT22;1444;49.166;7.312;2022-09-27T05:56:40;11.10;99.90
2873;DHT22;1444;49.166;7.312;2022-09-27T05:59:07;11.10;99.90
2873;DHT22;1444;49.166;7.312;2022-09-27T06:01:34;11.20;99.90
2873;DHT22;1444;49.166;7.312;2022-09-27T06:04:01;11.20;99.90
2873;DHT22;1444;49.166;7.312;2022-09-27T06:08:57;11.20;99.90
2873;DHT22;1444;49.166;7.312;2022-09-27T06:11:25;9.10;99.90
2873;DHT22;1444;49.166;7.312;2022-09-27T06:13:52;11.20;99.90
2873;DHT22;1444;49.166;7.312;2022-09-27T06:16:19;11.20;99.90
2873;DHT22;1444;49.166;7.312;2022-09-27T06:21:13;7.70;99.90
2873;DHT22;1444;49.166;7.312;2022-09-27T06:23:39;11.10;99.90
2873;DHT22;1444;49.166;7.312;2022-09-27T06:26:08;11.10;99.90
2873;DHT22;1444;49.166;7.312;2022-09-27T06:28:35;11.10;99.90
2873;DHT22;1444;49.166;7.312;2022-09-27T06:31:04;11.00;99.90
2873;DHT22;1444;49.166;7.312;2022-09-27T06:33:32;11.00;99.90
2873;DHT22;1444;49.166;7.312;2022-09-27T06:36:00;11.00;99.90
2873;DHT22;1444;49.166;7.312;2022-09-27T06:38:27;11.00;99.90
2873;DHT22;1444;49.166;7.312;2022-09-27T06:40:54;11.10;99.90
2873;DHT22;1444;49.166;7.312;2022-09-27T06:43:23;11.10;99.90
2873;DHT22;1444;49.166;7.312;2022-09-27T06:45:50;11.10;99.90
2873;DHT22;1444;49.166;7.312;2022-09-27T06:48:17;11.10;99.90
2873;DHT22;1444;49.166;7.312;2022-09-27T06:50:45;11.10;99.90
2873;DHT22;1444;49.166;7.312;2022-09-27T06:53:14;11.20;99.90
2873;DHT22;1444;49.166;7.312;2022-09-27T06:55:42;11.20;99.90
2873;DHT22;1444;49.166;7.312;2022-09-27T06:58:10;13.60;99.90
2873;DHT22;1444;49.166;7.312;2022-09-27T07:00:56;11.30;99.90
2873;DHT22;1444;49.166;7.312;2022-09-27T07:03:23;11.40;99.90
2873;DHT22;1444;49.166;7.312;2022-09-27T07:05:56;11.40;99.90
2873;DHT22;1444;49.166;7.312;2022-09-27T07:08:24;11.50;99.90
2873;DHT22;1444;49.166;7.312;2022-09-27T07:10:53;11.50;99.90
2873;DHT22;1444;49.166;7.312;2022-09-27T07:13:21;11.50;99.90
2873;DHT22;1444;49.166;7.312;2022-09-27T07:15:48;11.50;99.90
2873;DHT22;1444;49.166;7.312;2022-09-27T07:18:16;11.60;99.90
2873;DHT22;1444;49.166;7.312;2022-09-27T07:20:43;11.60;99.90
2873;DHT22;1444;49.166;7.312;2022-09-27T07:23:10;11.70;99.90
2873;DHT22;1444;49.166;7.312;2022-09-27T07:25:37;11.60;99.90
2873;DHT22;1444;49.166;7.312;2022-09-27T07:28:06;11.60;99.90
2873;DHT22;1444;49.166;7.312;2022-09-27T07:30:35;11.70;99.90
2873;DHT22;1444;49.166;7.312;2022-09-27T07:33:04;11.60;99.90
2873;DHT22;1444;49.166;7.312;2022-09-27T07:35:33;11.80;99.90
2873;DHT22;1444;49.166;7.312;2022-09-27T07:38:01;11.80;99.90
2873;DHT22;1444;49.166;7.312;2022-09-27T07:40:29;11.80;99.90
2873;DHT22;1444;49.166;7.312;2022-09-27T07:42:57;11.70;99.90
2873;DHT22;1444;49.166;7.312;2022-09-27T07:45:24;11.70;99.90
2873;DHT22;1444;49.166;7.312;2022-09-27T07:47:51;11.70;99.90
2873;DHT22;1444;49.166;7.312;2022-09-27T07:50:18;11.70;99.90
2873;DHT22;1444;49.166;7.312;2022-09-27T07:52:47;11.60;99.90
2873;DHT22;1444;49.166;7.312;2022-09-27T07:55:16;11.70;99.90
2873;DHT22;1444;49.166;7.312;2022-09-27T07:57:43;11.90;99.90
2873;DHT22;1444;49.166;7.312;2022-09-27T08:00:12;12.00;99.90
2873;DHT22;1444;49.166;7.312;2022-09-27T08:02:40;12.10;99.90
2873;DHT22;1444;49.166;7.312;2022-09-27T08:05:08;12.60;99.90
2873;DHT22;1444;49.166;7.312;2022-09-27T08:07:35;12.60;99.90
2873;DHT22;1444;49.166;7.312;2022-09-27T08:12:32;12.70;99.90
2873;DHT22;1444;49.166;7.312;2022-09-27T08:14:59;12.60;99.90
2873;DHT22;1444;49.166;7.312;2022-09-27T08:17:27;12.40;99.90
2873;DHT22;1444;49.166;7.312;2022-09-27T08:19:54;12.20;99.90
2873;DHT22;1444;49.166;7.312;2022-09-27T08:22:22;12.10;99.90
2873;DHT22;1444;49.166;7.312;2022-09-27T08:24:49;12.10;99.90
2873;DHT22;1444;49.166;7.312;2022-09-27T08:27:17;11.90;99.90
2873;DHT22;1444;49.166;7.312;2022-09-27T08:32:12;11.90;99.90
2873;DHT22;1444;49.166;7.312;2022-09-27T08:34:39;11.80;99.90
2873;DHT22;1444;49.166;7.312;2022-09-27T08:39:33;11.10;99.90
2873;DHT22;1444;49.166;7.312;2022-09-27T08:42:05;11.70;99.90
2873;DHT22;1444;49.166;7.312;2022-09-27T08:44:42;11.90;99.90
2873;DHT22;1444;49.166;7.312;2022-09-27T08:47:15;11.90;99.90
2873;DHT22;1444;49.166;7.312;2022-09-27T08:49:47;11.90;99.90
2873;DHT22;1444;49.166;7.312;2022-09-27T08:52:19;12.00;99.90
2873;DHT22;1444;49.166;7.312;2022-09-27T08:54:47;8.70;99.90
2873;DHT22;1444;49.166;7.312;2022-09-27T08:57:14;12.10;99.90
2873;DHT22;1444;49.166;7.312;2022-09-27T08:59:47;12.00;99.90
2873;DHT22;1444;49.166;7.312;2022-09-27T09:02:19;12.10;99.90
2873;DHT22;1444;49.166;7.312;2022-09-27T09:04:51;12.20;99.90
2873;DHT22;1444;49.166;7.312;2022-09-27T09:07:34;12.30;99.90
2873;DHT22;1444;49.166;7.312;2022-09-27T09:10:11;12.30;99.90
2873;DHT22;1444;49.166;7.312;2022-09-27T09:13:10;12.40;99.90
2873;DHT22;1444;49.166;7.312;2022-09-27T09:15:43;12.20;99.90
2873;DHT22;1444;49.166;7.312;2022-09-27T09:18:33;12.10;99.90
2873;DHT22;1444;49.166;7.312;2022-09-27T09:21:10;12.30;99.90
2873;DHT22;1444;49.166;7.312;2022-09-27T09:24:00;12.40;99.90
2873;DHT22;1444;49.166;7.312;2022-09-27T09:26:33;12.80;99.90
2873;DHT22;1444;49.166;7.312;2022-09-27T09:29:13;13.10;99.90
2873;DHT22;1444;49.166;7.312;2022-09-27T09:31:48;13.20;99.90
2873;DHT22;1444;49.166;7.312;2022-09-27T09:34:19;13.40;99.90
2873;DHT22;1444;49.166;7.312;2022-09-27T09:36:49;13.60;99.90
2873;DHT22;1444;49.166;7.312;2022-09-27T09:39:22;13.60;99.90
2873;DHT22;1444;49.166;7.312;2022-09-27T09:42:03;13.30;99.20
2873;DHT22;1444;49.166;7.312;2022-09-27T09:44:37;13.30;99.90
2873;DHT22;1444;49.166;7.312;2022-09-27T09:47:14;13.30;99.50
2873;DHT22;1444;49.166;7.312;2022-09-27T09:49:47;13.40;99.90
2873;DHT22;1444;49.166;7.312;2022-09-27T09:52:18;13.20;98.90
2873;DHT22;1444;49.166;7.312;2022-09-27T09:54:49;13.30;99.40
2873;DHT22;1444;49.166;7.312;2022-09-27T09:57:18;13.30;99.60
2873;DHT22;1444;49.166;7.312;2022-09-27T09:59:48;13.50;99.40
2873;DHT22;1444;49.166;7.312;2022-09-27T10:02:27;13.50;99.50
2873;DHT22;1444;49.166;7.312;2022-09-27T10:04:54;13.50;99.00
2873;DHT22;1444;49.166;7.312;2022-09-27T10:07:22;13.60;99.20
2873;DHT22;1444;49.166;7.312;2022-09-27T10:09:50;13.70;99.60
2873;DHT22;1444;49.166;7.312;2022-09-27T10:12:17;13.60;98.20
2873;DHT22;1444;49.166;7.312;2022-09-27T10:14:46;13.60;97.80
2873;DHT22;1444;49.166;7.312;2022-09-27T10:17:17;13.80;98.40
2873;DHT22;1444;49.166;7.312;2022-09-27T10:19:46;13.90;98.80
2873;DHT22;1444;49.166;7.312;2022-09-27T10:22:20;14.10;98.00
2873;DHT22;1444;49.166;7.312;2022-09-27T10:24:58;14.10;98.20
2873;DHT22;1444;49.166;7.312;2022-09-27T10:27:27;14.30;98.30
2873;DHT22;1444;49.166;7.312;2022-09-27T10:29:58;14.20;97.80
2873;DHT22;1444;49.166;7.312;2022-09-27T10:32:27;14.00;96.80
2873;DHT22;1444;49.166;7.312;2022-09-27T10:35:20;14.00;95.90
2873;DHT22;1444;49.166;7.312;2022-09-27T10:37:47;14.10;97.30
2873;DHT22;1444;49.166;7.312;2022-09-27T10:40:28;14.10;97.00
2873;DHT22;1444;49.166;7.312;2022-09-27T10:42:55;14.30;97.00
2873;DHT22;1444;49.166;7.312;2022-09-27T10:45:28;14.50;97.30
2873;DHT22;1444;49.166;7.312;2022-09-27T10:47:55;14.60;96.40
2873;DHT22;1444;49.166;7.312;2022-09-27T10:50:25;14.70;96.80
2873;DHT22;1444;49.166;7.312;2022-09-27T10:53:11;14.70;96.40
2873;DHT22;1444;49.166;7.312;2022-09-27T10:55:38;14.60;96.30
2873;DHT22;1444;49.166;7.312;2022-09-27T10:58:06;14.20;95.50
2873;DHT22;1444;49.166;7.312;2022-09-27T11:00:43;13.90;96.20
2873;DHT22;1444;49.166;7.312;2022-09-27T11:03:19;13.60;96.30
2873;DHT22;1444;49.166;7.312;2022-09-27T11:05:47;13.40;97.10
2873;DHT22;1444;49.166;7.312;2022-09-27T11:08:28;13.10;97.20
2873;DHT22;1444;49.166;7.312;2022-09-27T11:11:06;12.90;97.60
2873;DHT22;1444;49.166;7.312;2022-09-27T11:13:38;12.90;98.50
2873;DHT22;1444;49.166;7.312;2022-09-27T11:16:16;12.90;98.30
2873;DHT22;1444;49.166;7.312;2022-09-27T11:18:53;12.80;98.30
2873;DHT22;1444;49.166;7.312;2022-09-27T11:21:32;12.80;98.70
2873;DHT22;1444;49.166;7.312;2022-09-27T11:24:16;12.80;99.30
2873;DHT22;1444;49.166;7.312;2022-09-27T11:26:54;12.80;99.60
2873;DHT22;1444;49.166;7.312;2022-09-27T11:29:30;12.80;98.90
2873;DHT22;1444;49.166;7.312;2022-09-27T11:32:12;12.60;98.00
2873;DHT22;1444;49.166;7.312;2022-09-27T11:37:25;12.50;99.50
2873;DHT22;1444;49.166;7.312;2022-09-27T11:40:03;12.40;99.70
2873;DHT22;1444;49.166;7.312;2022-09-27T11:42:55;12.40;99.30
2873;DHT22;1444;49.166;7.312;2022-09-27T11:45:35;12.40;99.60
2873;DHT22;1444;49.166;7.312;2022-09-27T11:48:17;12.30;99.90
2873;DHT22;1444;49.166;7.312;2022-09-27T11:51:02;12.30;99.90
2873;DHT22;1444;49.166;7.312;2022-09-27T11:53:48;12.30;99.90
2873;DHT22;1444;49.166;7.312;2022-09-27T11:56:22;12.10;99.90
2873;DHT22;1444;49.166;7.312;2022-09-27T11:59:01;12.00;99.90
2873;DHT22;1444;49.166;7.312;2022-09-27T12:01:36;12.20;99.90
2873;DHT22;1444;49.166;7.312;2022-09-27T12:07:18;12.30;99.90
2873;DHT22;1444;49.166;7.312;2022-09-27T12:09:51;12.20;99.90
2873;DHT22;1444;49.166;7.312;2022-09-27T12:12:21;12.20;99.90
2873;DHT22;1444;49.166;7.312;2022-09-27T12:14:51;12.30;99.90
2873;DHT22;1444;49.166;7.312;2022-09-27T12:17:22;12.20;99.90
2873;DHT22;1444;49.166;7.312;2022-09-27T12:19:52;12.20;99.90
2873;DHT22;1444;49.166;7.312;2022-09-27T12:22:25;12.10;99.90
2873;DHT22;1444;49.166;7.312;2022-09-27T12:24:55;12.10;99.90
2873;DHT22;1444;49.166;7.312;2022-09-27T12:27:30;12.10;99.90
2873;DHT22;1444;49.166;7.312;2022-09-27T12:30:00;12.10;99.90
2873;DHT22;1444;49.166;7.312;2022-09-27T12:32:32;12.20;99.90
2873;DHT22;1444;49.166;7.312;2022-09-27T12:35:07;12.20;99.90
2873;DHT22;1444;49.166;7.312;2022-09-27T12:37:39;12.40;99.90
2873;DHT22;1444;49.166;7.312;2022-09-27T12:40:16;12.50;99.90
2873;DHT22;1444;49.166;7.312;2022-09-27T12:42:47;12.60;99.90
2873;DHT22;1444;49.166;7.312;2022-09-27T12:45:19;12.60;99.90
2873;DHT22;1444;49.166;7.312;2022-09-27T12:48:01;12.50;99.90
2873;DHT22;1444;49.166;7.312;2022-09-27T12:50:35;12.60;99.90
2873;DHT22;1444;49.166;7.312;2022-09-27T12:53:10;12.60;99.60
2873;DHT22;1444;49.166;7.312;2022-09-27T12:55:57;12.60;99.50
2873;DHT22;1444;49.166;7.312;2022-09-27T13:01:30;12.50;99.80
2873;DHT22;1444;49.166;7.312;2022-09-27T13:06:44;12.20;99.60
2873;DHT22;1444;49.166;7.312;2022-09-27T13:12:18;12.20;99.90
2873;DHT22;1444;49.166;7.312;2022-09-27T13:14:53;12.30;99.90
2873;DHT22;1444;49.166;7.312;2022-09-27T13:17:47;12.30;99.90
2873;DHT22;1444;49.166;7.312;2022-09-27T13:20:40;12.20;99.90
2873;DHT22;1444;49.166;7.312;2022-09-27T13:29:25;12.20;99.90
2873;DHT22;1444;49.166;7.312;2022-09-27T13:32:20;12.30;99.90
2873;DHT22;1444;49.166;7.312;2022-09-27T13:34:49;12.60;99.90
2873;DHT22;1444;49.166;7.312;2022-09-27T13:37:45;13.10;99.90
2873;DHT22;1444;49.166;7.312;2022-09-27T13:40:30;13.00;99.90
2873;DHT22;1444;49.166;7.312;2022-09-27T13:45:57;13.30;99.90
2873;DHT22;1444;49.166;7.312;2022-09-27T13:48:27;13.30;99.90
2873;DHT22;1444;49.166;7.312;2022-09-27T13:51:00;13.20;99.40
2873;DHT22;1444;49.166;7.312;2022-09-27T13:53:30;13.10;99.20
2873;DHT22;1444;49.166;7.312;2022-09-27T13:55:58;12.90;98.80
2873;DHT22;1444;49.166;7.312;2022-09-27T13:58:38;12.80;99.70
2873;DHT22;1444;49.166;7.312;2022-09-27T14:01:16;12.70;99.90
2873;DHT22;1444;49.166;7.312;2022-09-27T14:03:44;12.60;99.90
2873;DHT22;1444;49.166;7.312;2022-09-27T14:06:14;12.30;99.90
2873;DHT22;1444;49.166;7.312;2022-09-27T14:08:45;12.10;99.90
2873;DHT22;1444;49.166;7.312;2022-09-27T14:11:14;11.90;99.20
2873;DHT22;1444;49.166;7.312;2022-09-27T14:13:43;11.80;99.50
2873;DHT22;1444;49.166;7.312;2022-09-27T14:16:15;11.70;99.60
2873;DHT22;1444;49.166;7.312;2022-09-27T14:18:44;11.60;99.50
2873;DHT22;1444;49.166;7.312;2022-09-27T14:21:18;11.80;99.90
2873;DHT22;1444;49.166;7.312;2022-09-27T14:23:46;12.00;99.90
2873;DHT22;1444;49.166;7.312;2022-09-27T14:26:21;12.20;99.90
2873;DHT22;1444;49.166;7.312;2022-09-27T14:28:48;12.40;99.30
2873;DHT22;1444;49.166;7.312;2022-09-27T14:31:19;12.70;99.90
2873;DHT22;1444;49.166;7.312;2022-09-27T14:33:48;13.00;99.40
2873;DHT22;1444;49.166;7.312;2022-09-27T14:36:28;13.00;99.40
2873;DHT22;1444;49.166;7.312;2022-09-27T14:39:14;13.10;97.60
2873;DHT22;1444;49.166;7.312;2022-09-27T14:41:41;13.30;98.50
2873;DHT22;1444;49.166;7.312;2022-09-27T14:44:14;13.40;97.30
2873;DHT22;1444;49.166;7.312;2022-09-27T14:46:43;13.40;97.00
2873;DHT22;1444;49.166;7.312;2022-09-27T14:49:17;13.50;96.80
2873;DHT22;1444;49.166;7.312;2022-09-27T14:51:49;13.70;96.80
2873;DHT22;1444;49.166;7.312;2022-09-27T14:54:20;13.80;96.50
2873;DHT22;1444;49.166;7.312;2022-09-27T14:56:47;13.80;95.70
2873;DHT22;1444;49.166;7.312;2022-09-27T15:01:49;13.90;96.40
2873;DHT22;1444;49.166;7.312;2022-09-27T15:04:16;13.80;96.30
2873;DHT22;1444;49.166;7.312;2022-09-27T15:06:45;13.70;96.00
2873;DHT22;1444;49.166;7.312;2022-09-27T15:09:13;13.60;95.60
2873;DHT22;1444;49.166;7.312;2022-09-27T15:11:42;13.40;95.50
2873;DHT22;1444;49.166;7.312;2022-09-27T15:14:14;13.30;95.80
2873;DHT22;1444;49.166;7.312;2022-09-27T15:16:41;13.40;96.60
2873;DHT22;1444;49.166;7.312;2022-09-27T15:19:14;13.40;96.60
2873;DHT22;1444;49.166;7.312;2022-09-27T15:21:44;13.40;96.10
2873;DHT22;1444;49.166;7.312;2022-09-27T15:24:35;13.30;96.30
2873;DHT22;1444;49.166;7.312;2022-09-27T15:27:03;13.10;95.80
2873;DHT22;1444;49.166;7.312;2022-09-27T15:29:30;13.00;95.90
2873;DHT22;1444;49.166;7.312;2022-09-27T15:31:58;12.90;96.20
2873;DHT22;1444;49.166;7.312;2022-09-27T15:34:26;13.00;96.40
2873;DHT22;1444;49.166;7.312;2022-09-27T15:36:55;13.00;96.60
2873;DHT22;1444;49.166;7.312;2022-09-27T15:39:29;13.00;96.50
2873;DHT22;1444;49.166;7.312;2022-09-27T15:42:02;13.00;96.80
2873;DHT22;1444;49.166;7.312;2022-09-27T15:44:42;13.10;96.90
2873;DHT22;1444;49.166;7.312;2022-09-27T15:47:38;13.10;97.20
2873;DHT22;1444;49.166;7.312;2022-09-27T15:50:35;13.00;97.40
2873;DHT22;1444;49.166;7.312;2022-09-27T15:53:03;12.90;97.80
2873;DHT22;1444;49.166;7.312;2022-09-27T15:55:33;13.00;98.20
2873;DHT22;1444;49.166;7.312;2022-09-27T15:58:02;13.10;98.20
2873;DHT22;1444;49.166;7.312;2022-09-27T16:00:29;13.10;97.80
2873;DHT22;1444;49.166;7.312;2022-09-27T16:02:56;13.20;97.80
2873;DHT22;1444;49.166;7.312;2022-09-27T16:05:23;13.30;97.40
2873;DHT22;1444;49.166;7.312;2022-09-27T16:07:52;13.10;97.40
2873;DHT22;1444;49.166;7.312;2022-09-27T16:10:21;13.10;97.80
2873;DHT22;1444;49.166;7.312;2022-09-27T16:12:49;13.10;97.80
2873;DHT22;1444;49.166;7.312;2022-09-27T16:15:16;13.10;97.90
2873;DHT22;1444;49.166;7.312;2022-09-27T16:17:43;13.10;97.60
2873;DHT22;1444;49.166;7.312;2022-09-27T16:20:16;13.10;98.00
2873;DHT22;1444;49.166;7.312;2022-09-27T16:22:44;13.00;98.20
2873;DHT22;1444;49.166;7.312;2022-09-27T16:25:12;13.10;98.10
2873;DHT22;1444;49.166;7.312;2022-09-27T16:27:39;13.10;98.10
2873;DHT22;1444;49.166;7.312;2022-09-27T16:30:07;13.00;98.10
2873;DHT22;1444;49.166;7.312;2022-09-27T16:32:39;12.90;97.80
2873;DHT22;1444;49.166;7.312;2022-09-27T16:35:06;13.00;98.30
2873;DHT22;1444;49.166;7.312;2022-09-27T16:37:32;13.10;98.10
2873;DHT22;1444;49.166;7.312;2022-09-27T16:40:00;13.10;97.40
2873;DHT22;1444;49.166;7.312;2022-09-27T16:42:28;13.00;97.10
2873;DHT22;1444;49.166;7.312;2022-09-27T16:44:55;12.80;97.00
2873;DHT22;1444;49.166;7.312;2022-09-27T16:47:21;12.70;97.30
2873;DHT22;1444;49.166;7.312;2022-09-27T16:49:48;12.50;97.50
2873;DHT22;1444;49.166;7.312;2022-09-27T16:52:33;12.30;97.40
2873;DHT22;1444;49.166;7.312;2022-09-27T16:55:00;12.30;97.60
2873;DHT22;1444;49.166;7.312;2022-09-27T16:57:28;12.10;97.90
2873;DHT22;1444;49.166;7.312;2022-09-27T16:59:55;12.00;97.90
2873;DHT22;1444;49.166;7.312;2022-09-27T17:02:21;12.00;98.10
2873;DHT22;1444;49.166;7.312;2022-09-27T17:04:49;11.90;97.80
2873;DHT22;1444;49.166;7.312;2022-09-27T17:07:15;11.80;97.70
2873;DHT22;1444;49.166;7.312;2022-09-27T17:09:42;11.80;97.90
2873;DHT22;1444;49.166;7.312;2022-09-27T17:12:09;11.70;98.10
2873;DHT22;1444;49.166;7.312;2022-09-27T17:14:37;11.70;98.20
2873;DHT22;1444;49.166;7.312;2022-09-27T17:17:04;11.60;98.30
2873;DHT22;1444;49.166;7.312;2022-09-27T17:19:31;11.40;98.20